sensor_id;sensor_type;location;lat;lon;timestamp;P1;durP1;ratioP1;P2;durP2;ratioP2
58250;SDS011;51449;51.676;5.812;2023-04-12T00:00:11;6.40;;;2.57;;
58250;SDS011;51449;51.676;5.812;2023-04-12T00:02:34;6.53;;;2.30;;
58250;SDS011;51449;51.676;5.812;2023-04-12T00:04:56;3.77;;;1.97;;
58250;SDS011;51449;51.676;5.812;2023-04-12T00:07:18;9.53;;;2.80;;
58250;SDS011;51449;51.676;5.812;2023-04-12T00:09:41;5.60;;;2.00;;
58250;SDS011;51449;51.676;5.812;2023-04-12T00:12:03;7.33;;;2.60;;
58250;SDS011;51449;51.676;5.812;2023-04-12T00:14:26;4.80;;;1.53;;
58250;SDS011;51449;51.676;5.812;2023-04-12T00:16:49;4.83;;;1.40;;
58250;SDS011;51449;51.676;5.812;2023-04-12T00:19:11;3.53;;;1.40;;
58250;SDS011;51449;51.676;5.812;2023-04-12T00:21:33;6.97;;;1.73;;
58250;SDS011;51449;51.676;5.812;2023-04-12T00:23:56;5.73;;;1.60;;
58250;SDS011;51449;51.676;5.812;2023-04-12T00:26:17;5.30;;;1.30;;
58250;SDS011;51449;51.676;5.812;2023-04-12T00:28:43;2.77;;;1.47;;
58250;SDS011;51449;51.676;5.812;2023-04-12T00:31:05;5.93;;;1.60;;
58250;SDS011;51449;51.676;5.812;2023-04-12T00:33:28;5.83;;;2.00;;
58250;SDS011;51449;51.676;5.812;2023-04-12T00:35:53;4.37;;;1.87;;
58250;SDS011;51449;51.676;5.812;2023-04-12T00:38:14;4.97;;;1.63;;
58250;SDS011;51449;51.676;5.812;2023-04-12T00:40:40;2.97;;;1.30;;
58250;SDS011;51449;51.676;5.812;2023-04-12T00:43:03;6.07;;;2.20;;
58250;SDS011;51449;51.676;5.812;2023-04-12T00:45:25;4.90;;;1.50;;
58250;SDS011;51449;51.676;5.812;2023-04-12T00:47:47;2.83;;;1.40;;
58250;SDS011;51449;51.676;5.812;2023-04-12T00:50:09;2.77;;;1.40;;
58250;SDS011;51449;51.676;5.812;2023-04-12T00:52:32;5.10;;;1.57;;
58250;SDS011;51449;51.676;5.812;2023-04-12T00:57:18;5.13;;;1.57;;
58250;SDS011;51449;51.676;5.812;2023-04-12T00:59:41;6.03;;;1.53;;
58250;SDS011;51449;51.676;5.812;2023-04-12T01:02:03;6.30;;;1.80;;
58250;SDS011;51449;51.676;5.812;2023-04-12T01:04:25;6.47;;;1.40;;
58250;SDS011;51449;51.676;5.812;2023-04-12T01:09:48;5.80;;;1.50;;
58250;SDS011;51449;51.676;5.812;2023-04-12T01:12:44;5.50;;;1.77;;
58250;SDS011;51449;51.676;5.812;2023-04-12T01:17:39;4.22;;;1.65;;
58250;SDS011;51449;51.676;5.812;2023-04-12T01:20:49;6.40;;;1.80;;
58250;SDS011;51449;51.676;5.812;2023-04-12T01:26:08;4.97;;;1.70;;
58250;SDS011;51449;51.676;5.812;2023-04-12T01:28:57;4.80;;;1.80;;
58250;SDS011;51449;51.676;5.812;2023-04-12T01:31:24;4.23;;;1.80;;
58250;SDS011;51449;51.676;5.812;2023-04-12T01:33:51;4.57;;;2.00;;
58250;SDS011;51449;51.676;5.812;2023-04-12T01:36:18;5.03;;;2.00;;
58250;SDS011;51449;51.676;5.812;2023-04-12T01:38:43;4.60;;;1.73;;
58250;SDS011;51449;51.676;5.812;2023-04-12T01:41:07;6.40;;;1.60;;
58250;SDS011;51449;51.676;5.812;2023-04-12T01:43:29;6.40;;;2.03;;
58250;SDS011;51449;51.676;5.812;2023-04-12T01:45:51;4.83;;;1.70;;
58250;SDS011;51449;51.676;5.812;2023-04-12T01:48:13;4.30;;;1.70;;
58250;SDS011;51449;51.676;5.812;2023-04-12T01:53:32;4.43;;;1.60;;
58250;SDS011;51449;51.676;5.812;2023-04-12T01:56:08;4.47;;;1.70;;
58250;SDS011;51449;51.676;5.812;2023-04-12T01:58:31;5.60;;;1.77;;
58250;SDS011;51449;51.676;5.812;2023-04-12T02:00:55;4.70;;;1.70;;
58250;SDS011;51449;51.676;5.812;2023-04-12T02:03:22;9.33;;;1.93;;
58250;SDS011;51449;51.676;5.812;2023-04-12T02:05:45;5.00;;;2.20;;
58250;SDS011;51449;51.676;5.812;2023-04-12T02:08:07;6.93;;;2.17;;
58250;SDS011;51449;51.676;5.812;2023-04-12T02:10:30;5.33;;;1.60;;
58250;SDS011;51449;51.676;5.812;2023-04-12T02:12:52;3.87;;;1.70;;
58250;SDS011;51449;51.676;5.812;2023-04-12T02:15:17;3.42;;;1.60;;
58250;SDS011;51449;51.676;5.812;2023-04-12T02:17:41;3.88;;;1.60;;
58250;SDS011;51449;51.676;5.812;2023-04-12T02:20:03;6.80;;;1.77;;
58250;SDS011;51449;51.676;5.812;2023-04-12T02:22:32;6.70;;;2.23;;
58250;SDS011;51449;51.676;5.812;2023-04-12T02:24:54;7.53;;;1.80;;
58250;SDS011;51449;51.676;5.812;2023-04-12T02:27:15;4.30;;;2.00;;
58250;SDS011;51449;51.676;5.812;2023-04-12T02:29:39;6.63;;;1.90;;
58250;SDS011;51449;51.676;5.812;2023-04-12T02:32:01;4.73;;;1.70;;
58250;SDS011;51449;51.676;5.812;2023-04-12T02:34:23;4.33;;;1.87;;
58250;SDS011;51449;51.676;5.812;2023-04-12T02:36:52;5.63;;;1.57;;
58250;SDS011;51449;51.676;5.812;2023-04-12T02:39:14;3.13;;;1.50;;
58250;SDS011;51449;51.676;5.812;2023-04-12T02:41:41;4.27;;;2.03;;
58250;SDS011;51449;51.676;5.812;2023-04-12T02:44:05;3.47;;;1.98;;
58250;SDS011;51449;51.676;5.812;2023-04-12T02:46:28;3.87;;;1.60;;
58250;SDS011;51449;51.676;5.812;2023-04-12T02:48:52;4.88;;;1.80;;
58250;SDS011;51449;51.676;5.812;2023-04-12T02:51:16;5.05;;;1.60;;
58250;SDS011;51449;51.676;5.812;2023-04-12T02:53:41;4.07;;;1.97;;
58250;SDS011;51449;51.676;5.812;2023-04-12T02:56:11;3.77;;;1.50;;
58250;SDS011;51449;51.676;5.812;2023-04-12T02:58:33;4.40;;;1.80;;
58250;SDS011;51449;51.676;5.812;2023-04-12T03:00:56;4.03;;;1.63;;
58250;SDS011;51449;51.676;5.812;2023-04-12T03:03:26;4.60;;;2.03;;
58250;SDS011;51449;51.676;5.812;2023-04-12T03:05:58;4.00;;;1.40;;
58250;SDS011;51449;51.676;5.812;2023-04-12T03:08:20;3.20;;;1.50;;
58250;SDS011;51449;51.676;5.812;2023-04-12T03:10:48;5.63;;;1.87;;
58250;SDS011;51449;51.676;5.812;2023-04-12T03:13:10;4.70;;;1.60;;
58250;SDS011;51449;51.676;5.812;2023-04-12T03:15:38;2.73;;;1.30;;
58250;SDS011;51449;51.676;5.812;2023-04-12T03:18:01;4.23;;;1.87;;
58250;SDS011;51449;51.676;5.812;2023-04-12T03:20:27;5.53;;;1.60;;
58250;SDS011;51449;51.676;5.812;2023-04-12T03:22:57;4.23;;;1.90;;
58250;SDS011;51449;51.676;5.812;2023-04-12T03:25:19;3.40;;;1.67;;
58250;SDS011;51449;51.676;5.812;2023-04-12T03:27:47;6.20;;;1.70;;
58250;SDS011;51449;51.676;5.812;2023-04-12T03:30:13;2.70;;;1.73;;
58250;SDS011;51449;51.676;5.812;2023-04-12T03:32:36;6.60;;;1.70;;
58250;SDS011;51449;51.676;5.812;2023-04-12T03:35:01;3.77;;;1.20;;
58250;SDS011;51449;51.676;5.812;2023-04-12T03:37:25;1.80;;;1.10;;
58250;SDS011;51449;51.676;5.812;2023-04-12T03:39:50;3.00;;;1.43;;
58250;SDS011;51449;51.676;5.812;2023-04-12T03:42:15;2.67;;;1.30;;
58250;SDS011;51449;51.676;5.812;2023-04-12T03:45:01;2.88;;;1.20;;
58250;SDS011;51449;51.676;5.812;2023-04-12T03:47:23;4.00;;;1.50;;
58250;SDS011;51449;51.676;5.812;2023-04-12T03:49:46;4.43;;;1.63;;
58250;SDS011;51449;51.676;5.812;2023-04-12T03:52:29;3.50;;;1.50;;
58250;SDS011;51449;51.676;5.812;2023-04-12T03:54:50;4.37;;;1.53;;
58250;SDS011;51449;51.676;5.812;2023-04-12T03:57:19;3.37;;;1.27;;
58250;SDS011;51449;51.676;5.812;2023-04-12T03:59:43;3.60;;;1.90;;
58250;SDS011;51449;51.676;5.812;2023-04-12T04:02:05;4.07;;;1.97;;
58250;SDS011;51449;51.676;5.812;2023-04-12T04:04:31;5.83;;;2.20;;
58250;SDS011;51449;51.676;5.812;2023-04-12T04:06:58;3.03;;;1.40;;
58250;SDS011;51449;51.676;5.812;2023-04-12T04:09:23;3.23;;;1.37;;
58250;SDS011;51449;51.676;5.812;2023-04-12T04:11:46;4.30;;;1.47;;
58250;SDS011;51449;51.676;5.812;2023-04-12T04:14:07;4.03;;;1.73;;
58250;SDS011;51449;51.676;5.812;2023-04-12T04:16:29;3.57;;;2.17;;
58250;SDS011;51449;51.676;5.812;2023-04-12T04:18:53;4.50;;;2.30;;
58250;SDS011;51449;51.676;5.812;2023-04-12T04:21:17;3.20;;;1.60;;
58250;SDS011;51449;51.676;5.812;2023-04-12T04:23:40;2.30;;;1.40;;
58250;SDS011;51449;51.676;5.812;2023-04-12T04:26:05;3.43;;;1.53;;
58250;SDS011;51449;51.676;5.812;2023-04-12T04:28:38;5.13;;;2.17;;
58250;SDS011;51449;51.676;5.812;2023-04-12T04:31:12;2.45;;;1.40;;
58250;SDS011;51449;51.676;5.812;2023-04-12T04:33:36;4.82;;;1.75;;
58250;SDS011;51449;51.676;5.812;2023-04-12T04:36:00;2.25;;;1.45;;
58250;SDS011;51449;51.676;5.812;2023-04-12T04:38:26;2.63;;;1.47;;
58250;SDS011;51449;51.676;5.812;2023-04-12T04:40:59;2.53;;;1.53;;
58250;SDS011;51449;51.676;5.812;2023-04-12T04:43:38;3.73;;;1.20;;
58250;SDS011;51449;51.676;5.812;2023-04-12T04:46:01;1.93;;;1.70;;
58250;SDS011;51449;51.676;5.812;2023-04-12T04:48:23;4.43;;;1.57;;
58250;SDS011;51449;51.676;5.812;2023-04-12T04:50:45;3.17;;;1.50;;
58250;SDS011;51449;51.676;5.812;2023-04-12T04:53:07;3.13;;;1.67;;
58250;SDS011;51449;51.676;5.812;2023-04-12T04:55:29;5.67;;;1.60;;
58250;SDS011;51449;51.676;5.812;2023-04-12T04:57:51;3.10;;;1.70;;
58250;SDS011;51449;51.676;5.812;2023-04-12T05:00:13;4.43;;;1.90;;
58250;SDS011;51449;51.676;5.812;2023-04-12T05:02:40;2.97;;;1.57;;
58250;SDS011;51449;51.676;5.812;2023-04-12T05:05:06;2.87;;;1.60;;
58250;SDS011;51449;51.676;5.812;2023-04-12T05:07:29;1.97;;;1.63;;
58250;SDS011;51449;51.676;5.812;2023-04-12T05:09:52;4.17;;;1.53;;
58250;SDS011;51449;51.676;5.812;2023-04-12T05:12:14;3.47;;;1.60;;
58250;SDS011;51449;51.676;5.812;2023-04-12T05:14:43;2.57;;;1.50;;
58250;SDS011;51449;51.676;5.812;2023-04-12T05:17:11;2.40;;;1.33;;
58250;SDS011;51449;51.676;5.812;2023-04-12T05:19:33;5.07;;;1.90;;
58250;SDS011;51449;51.676;5.812;2023-04-12T05:21:56;4.63;;;1.87;;
58250;SDS011;51449;51.676;5.812;2023-04-12T05:24:18;2.60;;;1.93;;
58250;SDS011;51449;51.676;5.812;2023-04-12T05:26:41;3.97;;;1.90;;
58250;SDS011;51449;51.676;5.812;2023-04-12T05:29:07;3.43;;;1.60;;
58250;SDS011;51449;51.676;5.812;2023-04-12T05:31:28;3.10;;;1.60;;
58250;SDS011;51449;51.676;5.812;2023-04-12T05:33:53;4.47;;;1.38;;
58250;SDS011;51449;51.676;5.812;2023-04-12T05:36:19;2.50;;;1.80;;
58250;SDS011;51449;51.676;5.812;2023-04-12T05:38:41;2.30;;;1.60;;
58250;SDS011;51449;51.676;5.812;2023-04-12T05:41:05;4.13;;;1.90;;
58250;SDS011;51449;51.676;5.812;2023-04-12T05:43:27;4.43;;;1.83;;
58250;SDS011;51449;51.676;5.812;2023-04-12T05:45:50;3.03;;;1.80;;
58250;SDS011;51449;51.676;5.812;2023-04-12T05:48:16;5.80;;;1.40;;
58250;SDS011;51449;51.676;5.812;2023-04-12T05:50:40;2.70;;;1.60;;
58250;SDS011;51449;51.676;5.812;2023-04-12T05:55:28;2.47;;;1.70;;
58250;SDS011;51449;51.676;5.812;2023-04-12T05:57:50;3.07;;;1.60;;
58250;SDS011;51449;51.676;5.812;2023-04-12T06:00:14;4.07;;;1.80;;
58250;SDS011;51449;51.676;5.812;2023-04-12T06:02:39;4.27;;;1.70;;
58250;SDS011;51449;51.676;5.812;2023-04-12T06:05:02;2.10;;;1.90;;
58250;SDS011;51449;51.676;5.812;2023-04-12T06:07:25;3.40;;;1.70;;
58250;SDS011;51449;51.676;5.812;2023-04-12T06:09:47;3.03;;;1.80;;
58250;SDS011;51449;51.676;5.812;2023-04-12T06:12:10;4.18;;;2.20;;
58250;SDS011;51449;51.676;5.812;2023-04-12T06:14:33;2.33;;;1.90;;
58250;SDS011;51449;51.676;5.812;2023-04-12T06:16:56;3.80;;;1.90;;
58250;SDS011;51449;51.676;5.812;2023-04-12T06:19:17;3.77;;;2.00;;
58250;SDS011;51449;51.676;5.812;2023-04-12T06:21:39;4.60;;;2.53;;
58250;SDS011;51449;51.676;5.812;2023-04-12T06:24:02;4.13;;;2.23;;
58250;SDS011;51449;51.676;5.812;2023-04-12T06:26:24;3.17;;;2.50;;
58250;SDS011;51449;51.676;5.812;2023-04-12T06:28:46;3.17;;;2.00;;
58250;SDS011;51449;51.676;5.812;2023-04-12T06:31:08;4.03;;;2.50;;
58250;SDS011;51449;51.676;5.812;2023-04-12T06:33:32;2.22;;;2.00;;
58250;SDS011;51449;51.676;5.812;2023-04-12T06:35:54;3.30;;;2.37;;
58250;SDS011;51449;51.676;5.812;2023-04-12T06:38:17;3.57;;;2.23;;
58250;SDS011;51449;51.676;5.812;2023-04-12T06:40:39;2.77;;;2.20;;
58250;SDS011;51449;51.676;5.812;2023-04-12T06:43:01;2.80;;;1.70;;
58250;SDS011;51449;51.676;5.812;2023-04-12T06:45:22;2.50;;;1.90;;
58250;SDS011;51449;51.676;5.812;2023-04-12T06:47:44;1.70;;;1.60;;
58250;SDS011;51449;51.676;5.812;2023-04-12T06:50:07;1.60;;;1.50;;
58250;SDS011;51449;51.676;5.812;2023-04-12T06:52:30;2.00;;;1.80;;
58250;SDS011;51449;51.676;5.812;2023-04-12T06:54:52;3.80;;;1.83;;
58250;SDS011;51449;51.676;5.812;2023-04-12T06:57:16;2.00;;;1.80;;
58250;SDS011;51449;51.676;5.812;2023-04-12T06:59:38;2.20;;;1.70;;
58250;SDS011;51449;51.676;5.812;2023-04-12T07:02:00;1.80;;;1.50;;
58250;SDS011;51449;51.676;5.812;2023-04-12T07:04:22;1.80;;;1.70;;
58250;SDS011;51449;51.676;5.812;2023-04-12T07:06:44;3.13;;;1.60;;
58250;SDS011;51449;51.676;5.812;2023-04-12T07:09:05;2.60;;;1.80;;
58250;SDS011;51449;51.676;5.812;2023-04-12T07:11:27;1.53;;;1.43;;
58250;SDS011;51449;51.676;5.812;2023-04-12T07:13:49;1.60;;;1.50;;
58250;SDS011;51449;51.676;5.812;2023-04-12T07:16:12;2.53;;;1.67;;
58250;SDS011;51449;51.676;5.812;2023-04-12T07:18:33;2.37;;;1.80;;
58250;SDS011;51449;51.676;5.812;2023-04-12T07:20:55;3.10;;;1.90;;
58250;SDS011;51449;51.676;5.812;2023-04-12T07:23:18;2.83;;;1.90;;
58250;SDS011;51449;51.676;5.812;2023-04-12T07:25:40;2.00;;;1.80;;
58250;SDS011;51449;51.676;5.812;2023-04-12T07:28:02;2.47;;;1.80;;
58250;SDS011;51449;51.676;5.812;2023-04-12T07:30:24;3.73;;;1.97;;
58250;SDS011;51449;51.676;5.812;2023-04-12T07:32:46;2.13;;;1.83;;
58250;SDS011;51449;51.676;5.812;2023-04-12T07:35:09;3.40;;;2.30;;
58250;SDS011;51449;51.676;5.812;2023-04-12T07:37:31;3.87;;;2.10;;
58250;SDS011;51449;51.676;5.812;2023-04-12T07:39:53;2.30;;;2.10;;
58250;SDS011;51449;51.676;5.812;2023-04-12T07:42:14;3.63;;;2.50;;
58250;SDS011;51449;51.676;5.812;2023-04-12T07:44:36;3.50;;;2.27;;
58250;SDS011;51449;51.676;5.812;2023-04-12T07:46:59;3.70;;;2.40;;
58250;SDS011;51449;51.676;5.812;2023-04-12T07:49:21;3.33;;;2.30;;
58250;SDS011;51449;51.676;5.812;2023-04-12T07:51:43;4.03;;;2.43;;
58250;SDS011;51449;51.676;5.812;2023-04-12T07:54:04;2.80;;;2.40;;
58250;SDS011;51449;51.676;5.812;2023-04-12T07:56:26;5.80;;;2.17;;
58250;SDS011;51449;51.676;5.812;2023-04-12T07:58:48;4.33;;;2.40;;
58250;SDS011;51449;51.676;5.812;2023-04-12T08:01:10;3.70;;;2.33;;
58250;SDS011;51449;51.676;5.812;2023-04-12T08:03:33;5.53;;;2.53;;
58250;SDS011;51449;51.676;5.812;2023-04-12T08:05:55;4.37;;;2.47;;
58250;SDS011;51449;51.676;5.812;2023-04-12T08:08:17;6.10;;;2.77;;
58250;SDS011;51449;51.676;5.812;2023-04-12T08:10:43;5.73;;;2.47;;
58250;SDS011;51449;51.676;5.812;2023-04-12T08:13:05;4.90;;;2.57;;
58250;SDS011;51449;51.676;5.812;2023-04-12T08:15:27;5.27;;;2.60;;
58250;SDS011;51449;51.676;5.812;2023-04-12T08:17:49;4.40;;;2.53;;
58250;SDS011;51449;51.676;5.812;2023-04-12T08:20:10;8.73;;;2.60;;
58250;SDS011;51449;51.676;5.812;2023-04-12T08:22:32;4.87;;;2.30;;
58250;SDS011;51449;51.676;5.812;2023-04-12T08:24:54;7.20;;;2.53;;
58250;SDS011;51449;51.676;5.812;2023-04-12T08:27:16;8.73;;;2.60;;
58250;SDS011;51449;51.676;5.812;2023-04-12T08:29:37;3.83;;;2.27;;
58250;SDS011;51449;51.676;5.812;2023-04-12T08:31:59;6.70;;;2.80;;
58250;SDS011;51449;51.676;5.812;2023-04-12T08:34:21;8.00;;;3.17;;
58250;SDS011;51449;51.676;5.812;2023-04-12T08:36:44;5.13;;;2.63;;
58250;SDS011;51449;51.676;5.812;2023-04-12T08:39:06;5.50;;;2.63;;
58250;SDS011;51449;51.676;5.812;2023-04-12T08:41:28;9.00;;;2.63;;
58250;SDS011;51449;51.676;5.812;2023-04-12T08:43:50;7.30;;;3.07;;
58250;SDS011;51449;51.676;5.812;2023-04-12T08:46:13;6.43;;;2.93;;
58250;SDS011;51449;51.676;5.812;2023-04-12T08:48:36;6.70;;;2.90;;
58250;SDS011;51449;51.676;5.812;2023-04-12T08:51:00;10.52;;;3.40;;
58250;SDS011;51449;51.676;5.812;2023-04-12T08:53:23;6.27;;;2.57;;
58250;SDS011;51449;51.676;5.812;2023-04-12T08:55:45;6.87;;;2.87;;
58250;SDS011;51449;51.676;5.812;2023-04-12T08:58:07;8.97;;;2.90;;
58250;SDS011;51449;51.676;5.812;2023-04-12T09:00:29;7.23;;;2.77;;
58250;SDS011;51449;51.676;5.812;2023-04-12T09:02:51;7.83;;;2.60;;
58250;SDS011;51449;51.676;5.812;2023-04-12T09:05:14;7.53;;;3.20;;
58250;SDS011;51449;51.676;5.812;2023-04-12T09:07:36;9.37;;;3.40;;
58250;SDS011;51449;51.676;5.812;2023-04-12T09:09:58;11.63;;;3.60;;
58250;SDS011;51449;51.676;5.812;2023-04-12T09:12:20;7.93;;;3.33;;
58250;SDS011;51449;51.676;5.812;2023-04-12T09:14:44;10.25;;;3.28;;
58250;SDS011;51449;51.676;5.812;2023-04-12T09:19:48;10.83;;;2.70;;
58250;SDS011;51449;51.676;5.812;2023-04-12T09:22:10;10.77;;;3.83;;
58250;SDS011;51449;51.676;5.812;2023-04-12T09:24:40;10.00;;;3.57;;
58250;SDS011;51449;51.676;5.812;2023-04-12T09:27:07;7.70;;;3.67;;
58250;SDS011;51449;51.676;5.812;2023-04-12T09:29:29;7.67;;;3.10;;
58250;SDS011;51449;51.676;5.812;2023-04-12T09:32:02;11.20;;;3.40;;
58250;SDS011;51449;51.676;5.812;2023-04-12T09:34:28;8.07;;;3.17;;
58250;SDS011;51449;51.676;5.812;2023-04-12T09:36:51;8.80;;;3.30;;
58250;SDS011;51449;51.676;5.812;2023-04-12T09:39:14;7.00;;;3.10;;
58250;SDS011;51449;51.676;5.812;2023-04-12T09:41:35;8.77;;;3.10;;
58250;SDS011;51449;51.676;5.812;2023-04-12T09:44:01;8.50;;;3.30;;
58250;SDS011;51449;51.676;5.812;2023-04-12T09:46:23;9.53;;;3.20;;
58250;SDS011;51449;51.676;5.812;2023-04-12T09:48:49;10.47;;;3.57;;
58250;SDS011;51449;51.676;5.812;2023-04-12T09:51:12;10.53;;;2.97;;
58250;SDS011;51449;51.676;5.812;2023-04-12T09:53:43;8.63;;;3.20;;
58250;SDS011;51449;51.676;5.812;2023-04-12T09:56:09;9.37;;;2.90;;
58250;SDS011;51449;51.676;5.812;2023-04-12T09:58:32;9.13;;;3.20;;
58250;SDS011;51449;51.676;5.812;2023-04-12T10:00:59;9.13;;;3.07;;
58250;SDS011;51449;51.676;5.812;2023-04-12T10:03:24;10.30;;;3.70;;
58250;SDS011;51449;51.676;5.812;2023-04-12T10:05:47;10.37;;;3.03;;
58250;SDS011;51449;51.676;5.812;2023-04-12T10:08:12;13.60;;;3.57;;
58250;SDS011;51449;51.676;5.812;2023-04-12T10:10:35;12.47;;;3.83;;
58250;SDS011;51449;51.676;5.812;2023-04-12T10:12:58;13.87;;;4.47;;
58250;SDS011;51449;51.676;5.812;2023-04-12T10:15:22;11.43;;;4.00;;
58250;SDS011;51449;51.676;5.812;2023-04-12T10:17:51;10.30;;;4.17;;
58250;SDS011;51449;51.676;5.812;2023-04-12T10:20:15;16.07;;;3.70;;
58250;SDS011;51449;51.676;5.812;2023-04-12T10:25:09;13.83;;;4.07;;
58250;SDS011;51449;51.676;5.812;2023-04-12T10:27:33;12.87;;;3.60;;
58250;SDS011;51449;51.676;5.812;2023-04-12T10:30:09;11.07;;;3.57;;
58250;SDS011;51449;51.676;5.812;2023-04-12T10:32:43;13.97;;;3.70;;
58250;SDS011;51449;51.676;5.812;2023-04-12T10:35:05;10.90;;;3.90;;
58250;SDS011;51449;51.676;5.812;2023-04-12T10:40:24;10.27;;;4.60;;
58250;SDS011;51449;51.676;5.812;2023-04-12T10:42:46;10.03;;;3.90;;
58250;SDS011;51449;51.676;5.812;2023-04-12T10:45:34;14.33;;;4.17;;
58250;SDS011;51449;51.676;5.812;2023-04-12T10:47:57;11.67;;;4.83;;
58250;SDS011;51449;51.676;5.812;2023-04-12T10:50:21;10.15;;;3.78;;
58250;SDS011;51449;51.676;5.812;2023-04-12T10:55:30;16.17;;;5.23;;
58250;SDS011;51449;51.676;5.812;2023-04-12T10:57:53;12.00;;;4.90;;
58250;SDS011;51449;51.676;5.812;2023-04-12T11:00:15;8.70;;;4.07;;
58250;SDS011;51449;51.676;5.812;2023-04-12T11:03:02;10.43;;;4.10;;
58250;SDS011;51449;51.676;5.812;2023-04-12T11:05:55;14.30;;;4.38;;
58250;SDS011;51449;51.676;5.812;2023-04-12T11:09:05;14.27;;;4.70;;
58250;SDS011;51449;51.676;5.812;2023-04-12T11:11:27;15.10;;;5.17;;
58250;SDS011;51449;51.676;5.812;2023-04-12T11:13:55;12.07;;;4.20;;
58250;SDS011;51449;51.676;5.812;2023-04-12T11:16:19;11.82;;;4.00;;
58250;SDS011;51449;51.676;5.812;2023-04-12T11:18:44;12.43;;;4.03;;
58250;SDS011;51449;51.676;5.812;2023-04-12T11:21:07;14.33;;;3.83;;
58250;SDS011;51449;51.676;5.812;2023-04-12T11:23:31;9.93;;;2.13;;
58250;SDS011;51449;51.676;5.812;2023-04-12T11:25:53;14.23;;;2.70;;
58250;SDS011;51449;51.676;5.812;2023-04-12T11:28:16;11.93;;;2.80;;
58250;SDS011;51449;51.676;5.812;2023-04-12T11:30:53;8.23;;;2.13;;
58250;SDS011;51449;51.676;5.812;2023-04-12T11:33:36;11.57;;;2.80;;
58250;SDS011;51449;51.676;5.812;2023-04-12T11:36:02;12.37;;;2.90;;
58250;SDS011;51449;51.676;5.812;2023-04-12T11:38:29;12.33;;;2.47;;
58250;SDS011;51449;51.676;5.812;2023-04-12T11:40:51;12.70;;;2.83;;
58250;SDS011;51449;51.676;5.812;2023-04-12T11:43:18;12.30;;;2.83;;
58250;SDS011;51449;51.676;5.812;2023-04-12T11:45:41;10.67;;;2.70;;
58250;SDS011;51449;51.676;5.812;2023-04-12T11:48:06;8.80;;;2.60;;
58250;SDS011;51449;51.676;5.812;2023-04-12T11:50:29;10.87;;;3.00;;
58250;SDS011;51449;51.676;5.812;2023-04-12T11:52:52;9.97;;;2.90;;
58250;SDS011;51449;51.676;5.812;2023-04-12T11:55:15;11.23;;;2.97;;
58250;SDS011;51449;51.676;5.812;2023-04-12T11:57:38;10.63;;;2.45;;
58250;SDS011;51449;51.676;5.812;2023-04-12T12:00:00;12.20;;;3.27;;
58250;SDS011;51449;51.676;5.812;2023-04-12T12:02:32;13.87;;;2.80;;
58250;SDS011;51449;51.676;5.812;2023-04-12T12:05:12;9.20;;;3.20;;
58250;SDS011;51449;51.676;5.812;2023-04-12T12:07:35;13.83;;;3.47;;
58250;SDS011;51449;51.676;5.812;2023-04-12T12:09:58;11.33;;;2.67;;
58250;SDS011;51449;51.676;5.812;2023-04-12T12:12:21;12.70;;;3.13;;
58250;SDS011;51449;51.676;5.812;2023-04-12T12:14:44;13.80;;;3.83;;
58250;SDS011;51449;51.676;5.812;2023-04-12T12:17:09;15.82;;;4.35;;
58250;SDS011;51449;51.676;5.812;2023-04-12T12:19:37;13.43;;;4.50;;
58250;SDS011;51449;51.676;5.812;2023-04-12T12:24:32;14.70;;;5.00;;
58250;SDS011;51449;51.676;5.812;2023-04-12T12:27:00;13.83;;;5.63;;
58250;SDS011;51449;51.676;5.812;2023-04-12T12:29:24;14.40;;;5.47;;
58250;SDS011;51449;51.676;5.812;2023-04-12T12:31:46;18.00;;;6.40;;
58250;SDS011;51449;51.676;5.812;2023-04-12T12:34:10;15.80;;;6.30;;
58250;SDS011;51449;51.676;5.812;2023-04-12T12:39:02;15.23;;;6.07;;
58250;SDS011;51449;51.676;5.812;2023-04-12T12:41:31;13.93;;;5.63;;
58250;SDS011;51449;51.676;5.812;2023-04-12T12:43:53;14.97;;;5.47;;
58250;SDS011;51449;51.676;5.812;2023-04-12T12:46:15;14.60;;;4.83;;
58250;SDS011;51449;51.676;5.812;2023-04-12T12:48:39;16.53;;;5.57;;
58250;SDS011;51449;51.676;5.812;2023-04-12T12:51:02;11.23;;;5.78;;
58250;SDS011;51449;51.676;5.812;2023-04-12T12:53:24;13.43;;;5.50;;
58250;SDS011;51449;51.676;5.812;2023-04-12T12:55:46;15.20;;;5.10;;
58250;SDS011;51449;51.676;5.812;2023-04-12T12:58:08;12.30;;;4.70;;
58250;SDS011;51449;51.676;5.812;2023-04-12T13:00:29;7.40;;;2.53;;
58250;SDS011;51449;51.676;5.812;2023-04-12T13:02:52;7.10;;;2.30;;
58250;SDS011;51449;51.676;5.812;2023-04-12T13:05:14;6.70;;;1.90;;
58250;SDS011;51449;51.676;5.812;2023-04-12T13:07:36;8.27;;;1.97;;
58250;SDS011;51449;51.676;5.812;2023-04-12T13:09:59;5.93;;;2.03;;
58250;SDS011;51449;51.676;5.812;2023-04-12T13:12:21;5.70;;;1.63;;
58250;SDS011;51449;51.676;5.812;2023-04-12T13:14:43;4.97;;;1.97;;
58250;SDS011;51449;51.676;5.812;2023-04-12T13:17:05;6.87;;;1.60;;
58250;SDS011;51449;51.676;5.812;2023-04-12T13:19:27;8.27;;;2.73;;
58250;SDS011;51449;51.676;5.812;2023-04-12T13:21:49;7.67;;;1.90;;
58250;SDS011;51449;51.676;5.812;2023-04-12T13:24:13;8.80;;;2.10;;
58250;SDS011;51449;51.676;5.812;2023-04-12T13:26:35;7.63;;;2.03;;
58250;SDS011;51449;51.676;5.812;2023-04-12T13:28:56;6.33;;;2.20;;
58250;SDS011;51449;51.676;5.812;2023-04-12T13:31:19;7.50;;;2.40;;
58250;SDS011;51449;51.676;5.812;2023-04-12T13:33:41;6.83;;;1.90;;
58250;SDS011;51449;51.676;5.812;2023-04-12T13:36:02;6.00;;;2.10;;
58250;SDS011;51449;51.676;5.812;2023-04-12T13:38:24;8.83;;;1.87;;
58250;SDS011;51449;51.676;5.812;2023-04-12T13:40:47;8.23;;;2.13;;
58250;SDS011;51449;51.676;5.812;2023-04-12T13:43:09;6.33;;;1.90;;
58250;SDS011;51449;51.676;5.812;2023-04-12T13:45:31;11.47;;;2.77;;
58250;SDS011;51449;51.676;5.812;2023-04-12T13:47:54;9.00;;;2.10;;
58250;SDS011;51449;51.676;5.812;2023-04-12T13:50:17;7.87;;;2.10;;
58250;SDS011;51449;51.676;5.812;2023-04-12T13:52:38;10.70;;;2.83;;
58250;SDS011;51449;51.676;5.812;2023-04-12T13:55:00;9.97;;;2.43;;
58250;SDS011;51449;51.676;5.812;2023-04-12T13:57:22;7.77;;;2.03;;
58250;SDS011;51449;51.676;5.812;2023-04-12T13:59:44;9.13;;;2.77;;
58250;SDS011;51449;51.676;5.812;2023-04-12T14:02:06;10.87;;;3.27;;
58250;SDS011;51449;51.676;5.812;2023-04-12T14:04:28;9.20;;;3.07;;
58250;SDS011;51449;51.676;5.812;2023-04-12T14:06:52;9.15;;;2.92;;
58250;SDS011;51449;51.676;5.812;2023-04-12T14:09:26;9.80;;;2.80;;
58250;SDS011;51449;51.676;5.812;2023-04-12T14:11:50;12.47;;;2.63;;
58250;SDS011;51449;51.676;5.812;2023-04-12T14:14:13;11.37;;;3.23;;
58250;SDS011;51449;51.676;5.812;2023-04-12T14:16:37;8.63;;;2.70;;
58250;SDS011;51449;51.676;5.812;2023-04-12T14:18:59;8.97;;;2.53;;
58250;SDS011;51449;51.676;5.812;2023-04-12T14:21:20;7.40;;;2.87;;
58250;SDS011;51449;51.676;5.812;2023-04-12T14:23:43;3.97;;;1.60;;
58250;SDS011;51449;51.676;5.812;2023-04-12T14:26:04;3.47;;;1.43;;
58250;SDS011;51449;51.676;5.812;2023-04-12T14:28:27;4.63;;;1.70;;
58250;SDS011;51449;51.676;5.812;2023-04-12T14:30:53;4.37;;;1.90;;
58250;SDS011;51449;51.676;5.812;2023-04-12T14:33:17;5.63;;;1.90;;
58250;SDS011;51449;51.676;5.812;2023-04-12T14:35:39;3.47;;;1.70;;
58250;SDS011;51449;51.676;5.812;2023-04-12T14:38:02;5.17;;;1.87;;
58250;SDS011;51449;51.676;5.812;2023-04-12T14:40:25;2.03;;;1.73;;
58250;SDS011;51449;51.676;5.812;2023-04-12T14:42:47;4.30;;;1.50;;
58250;SDS011;51449;51.676;5.812;2023-04-12T14:45:09;2.10;;;1.30;;
58250;SDS011;51449;51.676;5.812;2023-04-12T14:47:32;5.40;;;1.93;;
58250;SDS011;51449;51.676;5.812;2023-04-12T14:49:54;3.17;;;1.43;;
58250;SDS011;51449;51.676;5.812;2023-04-12T14:52:16;2.07;;;1.63;;
58250;SDS011;51449;51.676;5.812;2023-04-12T14:54:39;4.17;;;2.13;;
58250;SDS011;51449;51.676;5.812;2023-04-12T14:57:01;2.30;;;1.60;;
58250;SDS011;51449;51.676;5.812;2023-04-12T14:59:24;4.73;;;1.87;;